Yakima, WA (98901)

7:55 PM PDT on July 24, 2017 (GMT -0700)
Terraced Estates | | Change Station

Elev 1302 ft 46.61 °N, 120.43 °W | Updated 1 minute ago

Clear
Clear
83.0 °F
Feels Like 82 °F
N
0.0
Wind Variable Wind from South
Gusts 0.0 mph

Today
High -- | Low -- °F
--% Chance of Precip.
Yesterday
High -- | Low -- °F
Precip. -- in
Pressure 29.84 in
Visibility 10.0 miles
Clouds Clear
Heat Index 82 °F
Dew Point 51 °F
Humidity 33%
Rainfall 0.00 in
Snow Depth Not available.
5:33 AM 8:42 PM
Waxing Crescent, 4% visible
METAR K1YT 250158Z AUTO 32005KT 10SM CLR 31/03 A2984 RMK AO2 SLPNO T03110029 $
Pressure 29.84 in
Visibility 10.0 miles
Clouds Clear
Heat Index 82 °F
Dew Point 51 °F
Humidity 33%
Rainfall 0.00 in
Snow Depth Not available.
5:33 AM 8:42 PM
Waxing Crescent, 4% visible
METAR K1YT 250158Z AUTO 32005KT 10SM CLR 31/03 A2984 RMK AO2 SLPNO T03110029 $

Get Severe Weather Alerts

Thanks for signing up!

Be on the lookout for a verification email in your inbox.

You'll start receiving the daily forecast at 6 AM.

×

10-Day Weather Forecast

Almanac

Astronomy

Jul. 24, 2017 Rise Set
Actual Time
Civil Twilight
Nautical Twilight
Astronomical Twilight
Moon
Length of Visible Light
Length of Day
Tomorrow will be .
, % of the Moon is Illuminated

Today's Extremes

State Highs State Lows

Community

WunderPhotos

Category 6

Welcome to Category 6. This is the collective home for Weather Underground's featured writeups by Dr. Jeff Masters (right), Bob Henson (left), Chris Burt, and other regular contributors.

Nearby

Air Quality

  Air Quality AQ Index Pollutant
Not available.

Snow Depth

Station Depth Elevation

Earthquake Activity

City Distance Mag. Time & Date
Minimum magnitude displayed is 2.5.

Coastal Water Temperatures

Place Temperature

Stations

Nearby Weather Stations

Station Location Temp. Windchill Dew Point Humidity Wind Precip. Elev Updated Type
                   

Watches & Warnings

There are currently no watches in effect.